Terminal Aerodrome Forecast
Issued by NWS Louisville, KY

Home | Current Version | Previous Version | Text Only | Print | Product List | Glossary On
Versions: 1 2 3 4 5 6 7 8 9 10 11 12 13
872
FTUS43 KLMK 091445 AAA
TAFBWG
TAF AMD
KBWG 091445Z 0915/1012 22011G17KT P6SM VCSH BKN080
      TEMPO 0915/0918 4SM -SHSN BKN025
     FM091800 28013G20KT P6SM OVC035
     FM100100 27005KT P6SM SCT035=

USA.gov is the U.S. government's official web portal to all federal, state and local government web resources and services.